createdAt,value
2024-01-24T00:00:06.344Z,1.00
2024-01-24T00:02:33.494Z,1.13
2024-01-24T00:05:00.649Z,2.53
2024-01-24T00:07:29.184Z,2.13
2024-01-24T00:09:56.330Z,1.10
2024-01-24T00:12:23.497Z,1.73
2024-01-24T00:14:50.731Z,2.47
2024-01-24T00:17:17.851Z,1.30
2024-01-24T00:19:45.066Z,0.60
2024-01-24T00:22:13.398Z,1.60
2024-01-24T00:24:40.474Z,1.57
2024-01-24T00:27:07.692Z,0.40
2024-01-24T00:29:34.827Z,0.67
2024-01-24T00:32:01.972Z,1.27
2024-01-24T00:34:29.148Z,0.40
2024-01-24T00:36:56.254Z,0.70
2024-01-24T00:39:23.448Z,1.53
2024-01-24T00:41:50.791Z,1.33
2024-01-24T00:44:17.927Z,0.30
2024-01-24T00:46:45.172Z,0.30
2024-01-24T00:49:13.247Z,0.90
2024-01-24T00:51:40.498Z,0.60
2024-01-24T00:54:07.713Z,0.80
2024-01-24T00:56:34.822Z,1.10
2024-01-24T00:59:01.946Z,0.97
2024-01-24T01:01:29.072Z,1.27
2024-01-24T01:03:56.486Z,0.93
2024-01-24T01:06:23.842Z,0.67
2024-01-24T01:08:51.032Z,1.80
2024-01-24T01:11:18.965Z,1.63
2024-01-24T01:13:46.081Z,1.50
2024-01-24T01:16:13.222Z,0.97
2024-01-24T01:18:40.384Z,1.37
2024-01-24T01:21:07.640Z,1.27
2024-01-24T01:23:34.836Z,2.13
2024-01-24T01:26:02.050Z,1.30
2024-01-24T01:28:29.216Z,1.10
2024-01-24T01:30:56.331Z,1.07
2024-01-24T01:33:23.609Z,1.43
2024-01-24T01:35:51.076Z,2.00
2024-01-24T01:38:18.824Z,0.80
2024-01-24T01:40:45.923Z,2.60
2024-01-24T01:43:16.210Z,1.37
2024-01-24T01:45:43.430Z,2.27
2024-01-24T01:48:11.930Z,1.07
2024-01-24T01:50:39.856Z,1.97
2024-01-24T01:53:07.723Z,0.43
2024-01-24T01:55:35.982Z,0.80
2024-01-24T01:58:03.294Z,1.13
2024-01-24T02:00:30.619Z,0.60
2024-01-24T02:02:57.839Z,1.37
2024-01-24T02:05:24.991Z,0.70
2024-01-24T02:07:52.201Z,0.20
2024-01-24T02:10:19.398Z,0.63
2024-01-24T02:12:46.621Z,0.30
2024-01-24T02:15:13.899Z,1.37
2024-01-24T02:17:41.130Z,0.60
2024-01-24T02:20:12.313Z,0.50
2024-01-24T02:22:39.554Z,0.47
2024-01-24T02:25:06.832Z,0.40
2024-01-24T02:27:34.566Z,0.57
2024-01-24T02:30:01.721Z,0.20
2024-01-24T02:32:28.925Z,0.10
2024-01-24T02:34:56.096Z,0.70
2024-01-24T02:37:23.310Z,0.97
2024-01-24T02:39:50.608Z,1.23
2024-01-24T02:42:17.831Z,0.70
2024-01-24T02:44:44.947Z,0.80
2024-01-24T02:47:12.972Z,0.67
2024-01-24T02:49:41.815Z,0.93
2024-01-24T02:52:09.149Z,0.73
2024-01-24T02:54:38.508Z,0.40
2024-01-24T02:57:05.839Z,0.50
2024-01-24T02:59:34.263Z,0.20
2024-01-24T03:02:01.491Z,0.90
2024-01-24T03:04:28.749Z,0.73
2024-01-24T03:06:58.805Z,0.63
2024-01-24T03:09:25.986Z,2.33
2024-01-24T03:11:53.135Z,0.77
2024-01-24T03:14:21.002Z,0.60
2024-01-24T03:16:48.108Z,0.30
2024-01-24T03:19:15.384Z,0.57
2024-01-24T03:21:42.669Z,0.63
2024-01-24T03:24:09.864Z,0.93
2024-01-24T03:26:37.422Z,0.37
2024-01-24T03:29:04.614Z,0.67
2024-01-24T03:31:31.725Z,0.33
2024-01-24T03:33:58.975Z,0.40
2024-01-24T03:36:26.156Z,1.17
2024-01-24T03:38:54.073Z,0.50
2024-01-24T03:41:21.834Z,0.87
2024-01-24T03:43:49.388Z,0.60
2024-01-24T03:46:19.813Z,1.33
2024-01-24T03:48:46.989Z,1.17
2024-01-24T03:51:14.413Z,0.70
2024-01-24T03:53:41.672Z,1.07
2024-01-24T03:56:08.844Z,1.30
2024-01-24T03:58:37.568Z,1.63
2024-01-24T04:01:05.290Z,1.73
2024-01-24T04:03:32.684Z,1.77
2024-01-24T04:05:59.919Z,1.83
2024-01-24T04:08:27.156Z,1.00
2024-01-24T04:10:54.337Z,1.00
2024-01-24T04:13:21.458Z,1.20
2024-01-24T04:15:48.653Z,2.13
2024-01-24T04:18:15.919Z,1.30
2024-01-24T04:20:43.081Z,0.87
2024-01-24T04:23:10.203Z,1.00
2024-01-24T04:25:37.321Z,1.37
2024-01-24T04:28:04.617Z,1.20
2024-01-24T04:30:31.784Z,0.60
2024-01-24T04:32:59.035Z,1.40
2024-01-24T04:35:26.183Z,1.13
2024-01-24T04:37:53.450Z,0.90
2024-01-24T04:40:20.626Z,1.70
2024-01-24T04:42:47.784Z,0.80
2024-01-24T04:45:16.996Z,0.87
2024-01-24T04:47:44.607Z,0.97
2024-01-24T04:50:12.510Z,0.67
2024-01-24T04:52:40.381Z,1.80
2024-01-24T04:55:12.113Z,0.83
2024-01-24T04:57:39.524Z,0.77
2024-01-24T05:00:10.343Z,1.00
2024-01-24T05:02:38.698Z,0.53
2024-01-24T05:05:09.014Z,1.50
2024-01-24T05:07:36.390Z,0.80
2024-01-24T05:10:07.397Z,0.97
2024-01-24T05:12:34.898Z,1.10
2024-01-24T05:15:02.086Z,1.30
2024-01-24T05:17:29.312Z,1.53
2024-01-24T05:19:56.519Z,1.80
2024-01-24T05:22:23.737Z,1.93
2024-01-24T05:24:50.842Z,2.20
2024-01-24T05:27:17.968Z,0.77
2024-01-24T05:29:46.759Z,0.93
2024-01-24T05:32:14.385Z,0.77
2024-01-24T05:34:41.628Z,1.27
2024-01-24T05:37:08.776Z,0.40
2024-01-24T05:39:35.947Z,0.90
2024-01-24T05:42:03.723Z,2.87
2024-01-24T05:44:30.943Z,2.17
2024-01-24T05:46:58.106Z,0.40
2024-01-24T05:49:25.457Z,0.70
2024-01-24T05:51:53.256Z,0.53
2024-01-24T05:54:20.570Z,0.97
2024-01-24T05:56:47.751Z,0.53
2024-01-24T05:59:16.011Z,0.93
2024-01-24T06:01:44.512Z,1.37
2024-01-24T06:04:12.152Z,1.93
2024-01-24T06:06:39.539Z,1.83
2024-01-24T06:09:06.817Z,1.00
2024-01-24T06:11:33.932Z,1.57
2024-01-24T06:14:01.122Z,0.50
2024-01-24T06:16:28.237Z,0.77
2024-01-24T06:22:23.842Z,0.43
2024-01-24T06:24:50.969Z,0.20
2024-01-24T06:27:18.711Z,2.33
2024-01-24T06:30:16.843Z,1.63
2024-01-24T06:32:33.088Z,0.80
2024-01-24T06:35:00.226Z,0.47
2024-01-24T06:37:27.432Z,0.63
2024-01-24T06:39:54.607Z,0.53
2024-01-24T06:42:21.786Z,0.40
2024-01-24T06:44:48.950Z,1.40
2024-01-24T06:47:16.067Z,0.70
2024-01-24T06:49:43.237Z,0.83
2024-01-24T06:52:10.592Z,1.03
2024-01-24T06:54:38.001Z,0.80
2024-01-24T06:57:05.501Z,0.67
2024-01-24T06:59:33.288Z,1.03
2024-01-24T07:02:00.517Z,0.33
2024-01-24T07:04:27.991Z,0.30
2024-01-24T07:06:55.318Z,0.70
2024-01-24T07:09:22.554Z,0.40
2024-01-24T07:11:50.214Z,0.63
2024-01-24T07:14:17.402Z,0.57
2024-01-24T07:16:45.895Z,1.43
2024-01-24T07:19:13.247Z,1.10
2024-01-24T07:21:41.028Z,0.47
2024-01-24T07:24:09.110Z,1.90
2024-01-24T07:26:36.854Z,0.70
2024-01-24T07:29:04.080Z,1.37
2024-01-24T07:31:31.165Z,0.40
2024-01-24T07:33:58.527Z,0.30
2024-01-24T07:36:26.155Z,0.30
2024-01-24T07:38:54.161Z,1.83
2024-01-24T07:41:21.252Z,1.70
2024-01-24T07:43:48.454Z,1.37
2024-01-24T07:46:16.577Z,0.30
2024-01-24T07:48:44.212Z,0.20
2024-01-24T07:51:11.967Z,0.80
2024-01-24T07:53:39.860Z,1.00
2024-01-24T07:56:15.754Z,0.80
2024-01-24T07:58:51.977Z,0.57
2024-01-24T08:01:19.466Z,0.63
2024-01-24T08:03:49.637Z,0.30
2024-01-24T08:06:18.754Z,0.10
2024-01-24T08:08:46.207Z,0.73
2024-01-24T08:11:13.698Z,0.30
2024-01-24T08:13:41.071Z,0.30
2024-01-24T08:16:09.145Z,1.73
2024-01-24T08:18:36.699Z,0.90
2024-01-24T08:21:06.967Z,0.30
2024-01-24T08:23:42.906Z,2.13
2024-01-24T08:26:16.446Z,0.60
2024-01-24T08:28:44.293Z,0.67
2024-01-24T08:31:12.294Z,0.50
2024-01-24T08:33:39.684Z,0.70
2024-01-24T08:36:07.041Z,0.60
2024-01-24T08:38:34.167Z,0.43
2024-01-24T08:41:01.646Z,0.10
2024-01-24T08:43:28.801Z,0.30
2024-01-24T08:45:56.028Z,0.30
2024-01-24T08:48:23.365Z,0.40
2024-01-24T08:50:50.555Z,0.37
2024-01-24T08:53:17.788Z,1.23
2024-01-24T08:55:44.937Z,0.97
2024-01-24T08:58:12.489Z,1.53
2024-01-24T09:00:40.539Z,0.60
2024-01-24T09:03:07.919Z,0.90
2024-01-24T09:05:35.245Z,0.30
2024-01-24T09:08:03.003Z,0.70
2024-01-24T09:10:30.479Z,1.10
2024-01-24T09:12:57.892Z,1.33
2024-01-24T09:15:25.369Z,0.57
2024-01-24T09:17:52.779Z,0.60
2024-01-24T09:20:20.127Z,1.10
2024-01-24T09:22:47.894Z,0.50
2024-01-24T09:25:15.717Z,1.17
2024-01-24T09:27:43.346Z,0.80
2024-01-24T09:30:11.118Z,0.70
2024-01-24T09:32:38.518Z,0.20
2024-01-24T09:35:06.107Z,0.60
2024-01-24T09:37:33.505Z,0.67
2024-01-24T09:40:00.899Z,0.30
2024-01-24T09:42:28.362Z,0.40
2024-01-24T09:44:57.432Z,0.43
2024-01-24T09:47:25.999Z,0.77
2024-01-24T09:49:53.345Z,1.03
2024-01-24T09:52:25.177Z,0.30
2024-01-24T09:54:57.956Z,0.50
2024-01-24T09:57:25.611Z,0.60
2024-01-24T09:59:52.869Z,0.30
2024-01-24T10:02:20.041Z,0.73
2024-01-24T10:04:47.327Z,1.83
2024-01-24T10:07:14.999Z,0.73
2024-01-24T10:09:42.334Z,0.63
2024-01-24T10:12:10.281Z,0.90
2024-01-24T10:14:41.938Z,1.90
2024-01-24T10:17:12.459Z,0.83
2024-01-24T10:19:40.610Z,0.30
2024-01-24T10:22:10.697Z,0.20
2024-01-24T10:24:38.580Z,0.53
2024-01-24T10:27:06.468Z,1.43
2024-01-24T10:29:33.786Z,1.23
2024-01-24T10:32:02.467Z,1.30
2024-01-24T10:34:30.197Z,1.60
2024-01-24T10:36:57.850Z,0.70
2024-01-24T10:39:27.165Z,0.93
2024-01-24T10:41:58.889Z,0.80
2024-01-24T10:44:26.976Z,1.43
2024-01-24T10:46:55.225Z,1.20
2024-01-24T10:49:23.465Z,1.60
2024-01-24T10:51:51.501Z,3.00
2024-01-24T10:54:19.107Z,2.83
2024-01-24T10:56:48.310Z,2.10
2024-01-24T10:59:16.217Z,2.27
2024-01-24T11:01:43.602Z,4.37
2024-01-24T11:04:12.783Z,4.00
2024-01-24T11:06:43.900Z,6.83
2024-01-24T11:09:29.770Z,5.87
2024-01-24T11:11:58.518Z,4.50
2024-01-24T11:14:32.238Z,3.57
2024-01-24T11:17:02.724Z,3.80
2024-01-24T11:19:30.843Z,5.83
2024-01-24T11:22:09.968Z,4.90
2024-01-24T11:24:44.874Z,3.50
2024-01-24T11:27:27.744Z,5.67
2024-01-24T11:29:56.116Z,5.97
2024-01-24T11:32:42.194Z,5.13
2024-01-24T11:35:28.701Z,9.67
2024-01-24T11:38:08.143Z,4.60
2024-01-24T11:40:40.475Z,4.80
2024-01-24T11:43:08.038Z,5.93
2024-01-24T11:45:36.165Z,8.33
2024-01-24T11:48:03.629Z,4.43
2024-01-24T11:50:31.060Z,6.93
2024-01-24T11:53:01.837Z,8.27
2024-01-24T11:55:29.446Z,5.73
2024-01-24T11:57:57.274Z,4.57
2024-01-24T12:00:24.764Z,4.37
2024-01-24T12:02:52.171Z,4.80
2024-01-24T12:05:19.595Z,5.07
2024-01-24T12:07:46.900Z,5.20
2024-01-24T12:10:15.919Z,4.87
2024-01-24T12:12:43.383Z,4.43
2024-01-24T12:15:11.791Z,4.97
2024-01-24T12:17:41.354Z,3.10
2024-01-24T12:20:09.869Z,2.43
2024-01-24T12:22:38.167Z,4.70
2024-01-24T12:25:08.577Z,4.73
2024-01-24T12:27:36.098Z,4.00
2024-01-24T12:30:03.392Z,7.63
2024-01-24T12:32:30.661Z,6.57
2024-01-24T12:34:58.007Z,4.07
2024-01-24T12:37:25.302Z,4.83
2024-01-24T12:39:54.919Z,6.80
2024-01-24T12:42:22.178Z,4.20
2024-01-24T12:44:55.734Z,6.17
2024-01-24T12:47:23.654Z,3.67
2024-01-24T12:49:51.849Z,5.30
2024-01-24T12:52:19.232Z,3.70
2024-01-24T12:54:46.499Z,4.17
2024-01-24T12:57:13.717Z,3.27
2024-01-24T12:59:41.512Z,7.00
2024-01-24T13:02:10.602Z,5.43
2024-01-24T13:04:37.964Z,6.30
2024-01-24T13:07:06.046Z,5.70
2024-01-24T13:09:37.154Z,2.80
2024-01-24T13:12:07.471Z,5.43
2024-01-24T13:14:34.784Z,6.40
2024-01-24T13:17:05.132Z,12.27
2024-01-24T13:19:32.898Z,5.63
2024-01-24T13:22:00.309Z,6.37
2024-01-24T13:24:27.920Z,6.50
2024-01-24T13:26:55.845Z,8.10
2024-01-24T13:29:23.536Z,7.97
2024-01-24T13:31:50.919Z,5.57
2024-01-24T13:34:18.286Z,3.40
2024-01-24T13:36:45.964Z,6.73
2024-01-24T13:39:17.095Z,7.43
2024-01-24T13:41:45.455Z,8.13
2024-01-24T13:44:13.540Z,5.90
2024-01-24T13:46:40.782Z,7.47
2024-01-24T13:49:11.312Z,5.10
2024-01-24T13:51:43.159Z,7.40
2024-01-24T13:54:12.068Z,5.97
2024-01-24T13:56:39.256Z,7.50
2024-01-24T13:59:06.426Z,9.93
2024-01-24T14:01:36.319Z,8.17
2024-01-24T14:04:09.806Z,4.63
2024-01-24T14:06:37.756Z,8.63
2024-01-24T14:09:05.068Z,9.37
2024-01-24T14:11:32.190Z,6.17
2024-01-24T14:13:59.372Z,5.77
2024-01-24T14:16:26.849Z,6.27
2024-01-24T14:18:54.176Z,7.93
2024-01-24T14:21:21.431Z,6.77
2024-01-24T14:23:48.654Z,8.27
2024-01-24T14:26:16.798Z,6.07
2024-01-24T14:28:44.518Z,7.47
2024-01-24T14:31:11.704Z,5.77
2024-01-24T14:33:38.923Z,6.70
2024-01-24T14:36:06.223Z,7.77
2024-01-24T14:38:33.409Z,12.20
2024-01-24T14:41:00.531Z,8.30
2024-01-24T14:43:27.709Z,6.17
2024-01-24T14:45:54.919Z,8.20
2024-01-24T14:48:22.345Z,6.70
2024-01-24T14:50:49.679Z,5.73
2024-01-24T14:53:17.683Z,6.93
2024-01-24T14:55:44.855Z,7.43
2024-01-24T14:58:12.301Z,5.43
2024-01-24T15:00:39.596Z,6.13
2024-01-24T15:03:06.842Z,8.17
2024-01-24T15:05:33.990Z,8.83
2024-01-24T15:08:01.271Z,8.43
2024-01-24T15:10:28.452Z,6.03
2024-01-24T15:12:55.639Z,7.47
2024-01-24T15:15:22.960Z,7.27
2024-01-24T15:17:50.689Z,9.00
2024-01-24T15:20:19.850Z,8.67
2024-01-24T15:22:47.888Z,7.07
2024-01-24T15:25:15.433Z,8.50
2024-01-24T15:27:44.278Z,6.57
2024-01-24T15:30:12.302Z,12.43
2024-01-24T15:32:39.646Z,10.00
2024-01-24T15:35:07.989Z,9.03
2024-01-24T15:37:35.301Z,11.93
2024-01-24T15:40:06.277Z,6.00
2024-01-24T15:42:41.960Z,7.30
2024-01-24T15:45:10.303Z,11.13
2024-01-24T15:47:38.012Z,9.37
2024-01-24T15:50:05.703Z,10.50
2024-01-24T15:52:32.883Z,8.03
2024-01-24T15:55:02.141Z,8.90
2024-01-24T15:57:29.418Z,6.57
2024-01-24T15:59:56.577Z,9.30
2024-01-24T16:02:23.786Z,5.27
2024-01-24T16:04:51.166Z,10.57
2024-01-24T16:07:19.036Z,8.33
2024-01-24T16:09:46.284Z,7.33
2024-01-24T16:12:13.729Z,11.47
2024-01-24T16:14:41.538Z,9.50
2024-01-24T16:17:11.360Z,6.77
2024-01-24T16:19:39.058Z,10.77
2024-01-24T16:22:06.297Z,10.50
2024-01-24T16:24:33.992Z,6.33
2024-01-24T16:27:01.248Z,11.10
2024-01-24T16:29:28.422Z,10.97
2024-01-24T16:31:55.550Z,7.70
2024-01-24T16:34:22.957Z,8.13
2024-01-24T16:36:50.186Z,8.33
2024-01-24T16:39:17.657Z,7.83
2024-01-24T16:41:44.790Z,10.57
2024-01-24T16:44:12.160Z,9.90
2024-01-24T16:46:39.315Z,12.10
2024-01-24T16:49:06.532Z,6.70
2024-01-24T16:51:35.312Z,9.00
2024-01-24T16:54:02.601Z,10.97
2024-01-24T16:56:29.824Z,8.10
2024-01-24T16:58:57.141Z,9.77
2024-01-24T17:01:24.468Z,11.47
2024-01-24T17:03:51.817Z,7.00
2024-01-24T17:06:19.015Z,5.77
2024-01-24T17:08:46.148Z,7.93
2024-01-24T17:11:15.034Z,8.23
2024-01-24T17:13:42.144Z,6.33
2024-01-24T17:16:09.256Z,13.70
2024-01-24T17:18:36.653Z,8.00
2024-01-24T17:21:05.821Z,8.67
2024-01-24T17:23:34.552Z,10.87
2024-01-24T17:26:01.994Z,10.53
2024-01-24T17:28:29.485Z,7.83
2024-01-24T17:30:57.050Z,7.97
2024-01-24T17:33:24.396Z,8.50
2024-01-24T17:39:27.146Z,7.57
2024-01-24T17:41:54.514Z,7.73
2024-01-24T17:44:21.960Z,7.13
2024-01-24T17:46:49.209Z,8.93
2024-01-24T17:49:17.263Z,10.80
2024-01-24T17:51:44.726Z,8.37
2024-01-24T17:54:12.015Z,6.03
2024-01-24T17:56:39.362Z,10.00
2024-01-24T17:59:08.091Z,6.97
2024-01-24T18:01:39.213Z,7.50
2024-01-24T18:04:06.990Z,7.47
2024-01-24T18:06:34.431Z,8.50
2024-01-24T18:09:01.818Z,5.17
2024-01-24T18:11:31.666Z,8.67
2024-01-24T18:13:58.843Z,8.47
2024-01-24T18:16:26.040Z,8.63
2024-01-24T18:18:53.274Z,8.17
2024-01-24T18:21:20.403Z,7.97
2024-01-24T18:23:47.577Z,5.53
2024-01-24T18:26:14.940Z,7.13
2024-01-24T18:28:42.167Z,7.20
2024-01-24T18:31:10.030Z,7.57
2024-01-24T18:33:37.246Z,6.07
2024-01-24T18:36:05.607Z,7.17
2024-01-24T18:38:32.922Z,7.17
2024-01-24T18:41:00.025Z,10.27
2024-01-24T18:43:27.961Z,9.63
2024-01-24T18:45:55.177Z,7.27
2024-01-24T18:48:22.417Z,9.87
2024-01-24T18:50:49.658Z,8.80
2024-01-24T18:53:17.966Z,8.40
2024-01-24T18:55:45.243Z,5.83
2024-01-24T18:58:12.577Z,9.40
2024-01-24T19:00:41.075Z,11.57
2024-01-24T19:03:08.396Z,9.53
2024-01-24T19:05:38.402Z,10.43
2024-01-24T19:08:08.979Z,5.60
2024-01-24T19:10:36.466Z,7.07
2024-01-24T19:13:03.808Z,6.97
2024-01-24T19:15:32.922Z,6.23
2024-01-24T19:18:07.299Z,6.97
2024-01-24T19:20:41.959Z,7.43
2024-01-24T19:23:09.420Z,9.67
2024-01-24T19:25:36.608Z,6.50
2024-01-24T19:28:03.830Z,9.83
2024-01-24T19:30:31.128Z,11.00
2024-01-24T19:32:58.477Z,8.70
2024-01-24T19:35:25.747Z,11.83
2024-01-24T19:37:53.269Z,7.50
2024-01-24T19:40:20.402Z,5.90
2024-01-24T19:42:47.890Z,7.07
2024-01-24T19:45:15.574Z,7.20
2024-01-24T19:47:42.927Z,8.47
2024-01-24T19:50:11.563Z,11.33
2024-01-24T19:52:40.001Z,8.03
2024-01-24T19:55:08.410Z,8.63
2024-01-24T19:57:36.091Z,9.40
2024-01-24T20:00:03.280Z,6.63
2024-01-24T20:02:30.457Z,7.27
2024-01-24T20:04:57.971Z,8.07
2024-01-24T20:07:25.166Z,7.70
2024-01-24T20:09:54.692Z,6.10
2024-01-24T20:12:22.238Z,10.70
2024-01-24T20:14:50.555Z,5.80
2024-01-24T20:17:19.874Z,9.07
2024-01-24T20:19:48.257Z,13.03
2024-01-24T20:22:16.054Z,13.20
2024-01-24T20:24:43.338Z,7.33
2024-01-24T20:27:10.542Z,7.50
2024-01-24T20:29:37.767Z,5.83
2024-01-24T20:32:05.280Z,8.77
2024-01-24T20:34:32.616Z,9.23
2024-01-24T20:37:00.106Z,6.83
2024-01-24T20:39:28.487Z,6.53
2024-01-24T20:41:55.649Z,8.60
2024-01-24T20:44:22.869Z,7.70
2024-01-24T20:46:49.970Z,9.47
2024-01-24T20:49:17.627Z,8.47
2024-01-24T20:51:48.018Z,8.93
2024-01-24T20:54:15.437Z,6.20
2024-01-24T20:56:44.933Z,10.33
2024-01-24T20:59:12.249Z,7.70
2024-01-24T21:01:39.515Z,8.87
2024-01-24T21:04:06.792Z,7.73
2024-01-24T21:06:34.356Z,9.70
2024-01-24T21:09:01.476Z,9.47
2024-01-24T21:11:29.016Z,6.63
2024-01-24T21:13:56.103Z,6.83
2024-01-24T21:16:23.350Z,10.67
2024-01-24T21:18:51.152Z,7.07
2024-01-24T21:21:18.584Z,6.50
2024-01-24T21:23:45.812Z,5.93
2024-01-24T21:26:13.799Z,5.77
2024-01-24T21:28:40.923Z,10.10
2024-01-24T21:31:08.688Z,8.23
2024-01-24T21:33:36.324Z,5.77
2024-01-24T21:36:03.623Z,7.43
2024-01-24T21:38:30.756Z,6.47
2024-01-24T21:40:57.928Z,7.60
2024-01-24T21:43:25.075Z,8.17
2024-01-24T21:45:52.263Z,5.87
2024-01-24T21:48:19.476Z,7.20
2024-01-24T21:50:47.384Z,8.13
2024-01-24T21:53:14.509Z,13.47
2024-01-24T21:55:42.620Z,9.90
2024-01-24T21:58:09.796Z,6.63
2024-01-24T22:00:37.477Z,6.33
2024-01-24T22:03:04.770Z,8.23
2024-01-24T22:05:32.157Z,7.17
2024-01-24T22:07:59.489Z,11.33
2024-01-24T22:10:26.630Z,11.40
2024-01-24T22:12:55.875Z,5.97
2024-01-24T22:15:23.218Z,8.20
2024-01-24T22:17:51.023Z,7.40
2024-01-24T22:20:18.358Z,9.93
2024-01-24T22:22:45.957Z,7.33
2024-01-24T22:25:13.297Z,9.43
2024-01-24T22:27:40.895Z,9.77
2024-01-24T22:30:08.477Z,11.60
2024-01-24T22:32:35.677Z,8.13
2024-01-24T22:35:04.964Z,8.67
2024-01-24T22:37:32.211Z,13.10
2024-01-24T22:39:59.442Z,9.17
2024-01-24T22:42:26.701Z,6.37
2024-01-24T22:44:54.020Z,8.10
2024-01-24T22:47:21.372Z,6.63
2024-01-24T22:49:48.668Z,10.83
2024-01-24T22:52:16.274Z,10.03
2024-01-24T22:54:43.569Z,5.90
2024-01-24T22:57:10.759Z,5.03
2024-01-24T22:59:37.931Z,5.60
2024-01-24T23:02:06.553Z,9.07
2024-01-24T23:04:34.005Z,7.87
2024-01-24T23:07:01.443Z,7.47
2024-01-24T23:09:28.788Z,8.00
2024-01-24T23:11:55.952Z,6.13
2024-01-24T23:14:23.125Z,9.23
2024-01-24T23:16:50.272Z,5.83
2024-01-24T23:19:17.717Z,6.43
2024-01-24T23:21:44.955Z,8.30
2024-01-24T23:24:12.190Z,12.43
2024-01-24T23:26:40.385Z,4.60
2024-01-24T23:29:08.173Z,10.93
2024-01-24T23:31:35.292Z,11.57
2024-01-24T23:34:02.703Z,9.40
2024-01-24T23:36:30.136Z,8.67
2024-01-24T23:38:57.537Z,10.77
2024-01-24T23:41:24.632Z,9.03
2024-01-24T23:43:52.315Z,6.70
2024-01-24T23:46:19.538Z,11.73
2024-01-24T23:48:46.897Z,7.77
2024-01-24T23:51:14.922Z,5.77
2024-01-24T23:53:42.333Z,9.57
2024-01-24T23:56:09.450Z,7.27
2024-01-24T23:58:36.618Z,7.33
